Pilot No. 4 — WDA5463 — position and weather

sailwx.info

Track history (hours):
 
Tides and Currents Weather Stations Pressure Air Temp Water Temp Dewpoint Dewpoint Depression Visibility Wind Speed Wind Dir Waves Ship Positions

Pilot No. 4

Owner: P E P Inc, FORT LAUDERDALE, FL. More information available from US FCC via Universal Licensing System and Coast Guard Vessel Documentation Center.

Last reported at 2015-Feb-01 22:27 UTC. Time now 2015-Feb-01 22:47 UTC.
Position N 26°06' W 080°07'.

MMSI: 495270931.

Date/timePositionNaut miles runAvg speedWind from/ knotsBaromVisibWave heightAir tempDewpointWater temp
2015-Feb-01 22:27N 26°06' W 080°07'1 0.9
2015-Feb-01 21:34N 26°06' W 080°06'1 0.7
2015-Feb-01 20:33N 26°06' W 080°07'0 0.2
2015-Feb-01 18:33N 26°06' W 080°07'1 0.6
2015-Feb-01 16:33N 26°06' W 080°06'2 0.5
2015-Feb-01 13:27N 26°06' W 080°07'0 0.0
2015-Feb-01 11:18N 26°06' W 080°07'2 2.6
2015-Feb-01 10:33N 26°06' W 080°05'1 0.5
2015-Feb-01 09:33N 26°06' W 080°05'1 0.7
2015-Feb-01 08:33N 26°05' W 080°05'2 1.8
2015-Feb-01 07:30N 26°06' W 080°07'0 0.5
2015-Feb-01 06:33N 26°06' W 080°07'1 0.7
2015-Feb-01 05:33N 26°06' W 080°07'0 0.5
2015-Feb-01 04:33N 26°05' W 080°07'1 0.1
2015-Jan-31 23:18N 26°06' W 080°07'0 0.6
2015-Jan-31 22:33N 26°06' W 080°07'0 0.1
2015-Jan-31 21:33N 26°06' W 080°07'1 0.2
2015-Jan-31 18:09N 26°06' W 080°07'1 1.1
2015-Jan-31 17:33N 26°06' W 080°07'1 0.6
2015-Jan-31 16:33N 26°06' W 080°07'1 1.0
2015-Jan-31 15:33N 26°05' W 080°07'1 0.6
2015-Jan-31 14:33N 26°06' W 080°07'0 0.3
2015-Jan-31 13:33N 26°06' W 080°07'0 0.0
2015-Jan-31 12:33N 26°06' W 080°07'1 1.5
2015-Jan-31 11:33N 26°06' W 080°05'4 3.6
2015-Jan-31 10:33N 26°06' W 080°02'2 1.5
2015-Jan-31 09:33N 26°04' W 080°03'4 4.0
2015-Jan-31 08:33N 26°05' W 080°07'0 0.3
2015-Jan-31 07:33N 26°05' W 080°07'2 0.6
2015-Jan-31 04:33N 26°05' W 080°05'2 1.0
2015-Jan-31 02:33N 26°06' W 080°07'0 0.4
2015-Jan-31 01:33N 26°06' W 080°07'0 0.0
2015-Jan-31 00:23N 26°06' W 080°07'0 0.0
2015-Jan-30 23:33N 26°06' W 080°07'1 0.7
2015-Jan-30 22:33N 26°06' W 080°07'0 0.4
2015-Jan-30 21:33N 26°05' W 080°07'4 4.0
2015-Jan-30 20:33N 26°06' W 080°02'4 4.2
2015-Jan-30 19:33N 26°06' W 080°07'0 0.1
2015-Jan-30 16:23N 26°06' W 080°07'1 1.1
2015-Jan-30 15:33N 26°05' W 080°07'1 0.5
2015-Jan-30 14:33N 26°06' W 080°07'0 0.4
2015-Jan-30 13:33N 26°06' W 080°07'0 0.0
2015-Jan-28 20:32N 26°06' W 080°07'1 0.8
2015-Jan-28 19:33N 26°05' W 080°07'3 2.6
2015-Jan-28 18:33N 26°05' W 080°04'3 0.1
2015-Jan-27 20:04N 26°06' W 080°07'1 1.2
2015-Jan-27 19:33N 26°06' W 080°07'1 0.3
2015-Jan-27 17:33N 26°06' W 080°07'3 2.7
2015-Jan-27 16:33N 26°06' W 080°04'1 1.4
2015-Jan-27 15:33N 26°06' W 080°03'2 2.1
2015-Jan-27 14:33N 26°06' W 080°05'1 1.2
2015-Jan-27 13:34N 26°06' W 080°06'1 0.8
2015-Jan-27 12:33N 26°06' W 080°07'0 0.3
2015-Jan-27 11:26N 26°06' W 080°07'1 1.5
2015-Jan-27 10:33N 26°06' W 080°06'1 0.5
2015-Jan-27 09:34N 26°06' W 080°07'0 0.1
2015-Jan-27 07:34N 26°06' W 080°07'0 0.0
2015-Jan-26 22:28N 26°06' W 080°07'1 0.8
2015-Jan-26 21:33N 26°06' W 080°06'1 0.8
2015-Jan-26 20:34N 26°06' W 080°06'2 0.3
2015-Jan-26 14:33N 26°06' W 080°03'3 3.1
2015-Jan-26 13:33N 26°06' W 080°07'0 0.2
2015-Jan-26 11:33N 26°05' W 080°07'5 5.1
2015-Jan-26 10:33N 26°06' W 080°01'5 5.4
2015-Jan-26 09:33N 26°06' W 080°07'5 4.5
2015-Jan-26 08:33N 26°05' W 080°02'4 4.4
2015-Jan-26 07:33N 26°06' W 080°07'0 0.1
2015-Jan-26 04:09N 26°06' W 080°07'1 1.4
2015-Jan-26 03:33N 26°06' W 080°07'0 0.3
2015-Jan-26 02:33N 26°06' W 080°07'1 0.0
2015-Jan-25 11:27N 26°06' W 080°07'5 5.9
2015-Jan-25 10:33N 26°06' W 080°02'3 2.8
2015-Jan-25 09:33N 26°06' W 080°05'2 1.8
2015-Jan-25 08:33N 26°06' W 080°03'4 3.9
2015-Jan-25 07:33N 26°06' W 080°07'1 1.2
2015-Jan-25 06:33N 26°05' W 080°07'1 0.6
2015-Jan-25 05:33N 26°06' W 080°07'0 0.1
2015-Jan-25 04:33N 26°06' W 080°07'2 2.2
2015-Jan-25 03:33N 26°06' W 080°04'3 0.6
2015-Jan-24 23:04N 26°06' W 080°07'2 3.9
2015-Jan-24 22:34N 26°06' W 080°05'2 0.2
2015-Jan-24 12:18N 26°06' W 080°07'1 1.2
2015-Jan-24 11:33N 26°05' W 080°07'0 0.2
2015-Jan-24 10:34N 26°05' W 080°07'0 0.2
2015-Jan-24 09:33N 26°05' W 080°07'1 0.8
2015-Jan-24 08:33N 26°06' W 080°06'3 3.0
2015-Jan-24 07:33N 26°05' W 080°03'3 3.0
2015-Jan-24 06:33N 26°06' W 080°06'1 1.0
2015-Jan-24 05:33N 26°06' W 080°07'1 0.8
2015-Jan-24 04:33N 26°06' W 080°07'0 0.2
2015-Jan-24 02:33N 26°06' W 080°07'0 0.1
2015-Jan-24 01:33N 26°06' W 080°07'1 0.7
2015-Jan-23 23:34N 26°04' W 080°07'2 2.0
2015-Jan-23 22:33N 26°06' W 080°05'2 1.7
2015-Jan-23 21:33N 26°05' W 080°03'4 0.6
2015-Jan-23 15:31N 26°06' W 080°07'1 0.8
2015-Jan-23 14:33N 26°06' W 080°07'  
Track history (hours):
 
Tides and Currents Weather Stations Pressure Air Temp Water Temp Dewpoint Dewpoint Depression Visibility Wind Speed Wind Dir Waves Ship Positions

Pilot No. 4

Owner: P E P Inc, FORT LAUDERDALE, FL. More information available from US FCC via Universal Licensing System and Coast Guard Vessel Documentation Center.

Last reported at 2015-Feb-01 22:27 UTC. Time now 2015-Feb-01 22:47 UTC.
Position N 26°06' W 080°07'.

MMSI: 495270931.

Date/timePositionNaut miles runAvg speedWind from/ knotsBaromVisibWave heightAir tempDewpointWater temp
2015-Feb-01 22:27N 26°06' W 080°07'1 0.9
2015-Feb-01 21:34N 26°06' W 080°06'1 0.7
2015-Feb-01 20:33N 26°06' W 080°07'0 0.2
2015-Feb-01 18:33N 26°06' W 080°07'1 0.6
2015-Feb-01 16:33N 26°06' W 080°06'2 0.5
2015-Feb-01 13:27N 26°06' W 080°07'0 0.0
2015-Feb-01 11:18N 26°06' W 080°07'2 2.6
2015-Feb-01 10:33N 26°06' W 080°05'1 0.5
2015-Feb-01 09:33N 26°06' W 080°05'1 0.7
2015-Feb-01 08:33N 26°05' W 080°05'2 1.8
2015-Feb-01 07:30N 26°06' W 080°07'0 0.5
2015-Feb-01 06:33N 26°06' W 080°07'1 0.7
2015-Feb-01 05:33N 26°06' W 080°07'0 0.5
2015-Feb-01 04:33N 26°05' W 080°07'1 0.1
2015-Jan-31 23:18N 26°06' W 080°07'0 0.6
2015-Jan-31 22:33N 26°06' W 080°07'0 0.1
2015-Jan-31 21:33N 26°06' W 080°07'1 0.2
2015-Jan-31 18:09N 26°06' W 080°07'1 1.1
2015-Jan-31 17:33N 26°06' W 080°07'1 0.6
2015-Jan-31 16:33N 26°06' W 080°07'1 1.0
2015-Jan-31 15:33N 26°05' W 080°07'1 0.6
2015-Jan-31 14:33N 26°06' W 080°07'0 0.3
2015-Jan-31 13:33N 26°06' W 080°07'0 0.0
2015-Jan-31 12:33N 26°06' W 080°07'1 1.5
2015-Jan-31 11:33N 26°06' W 080°05'4 3.6
2015-Jan-31 10:33N 26°06' W 080°02'2 1.5
2015-Jan-31 09:33N 26°04' W 080°03'4 4.0
2015-Jan-31 08:33N 26°05' W 080°07'0 0.3
2015-Jan-31 07:33N 26°05' W 080°07'2 0.6
2015-Jan-31 04:33N 26°05' W 080°05'2 1.0
2015-Jan-31 02:33N 26°06' W 080°07'0 0.4
2015-Jan-31 01:33N 26°06' W 080°07'0 0.0
2015-Jan-31 00:23N 26°06' W 080°07'0 0.0
2015-Jan-30 23:33N 26°06' W 080°07'1 0.7
2015-Jan-30 22:33N 26°06' W 080°07'0 0.4
2015-Jan-30 21:33N 26°05' W 080°07'4 4.0
2015-Jan-30 20:33N 26°06' W 080°02'4 4.2
2015-Jan-30 19:33N 26°06' W 080°07'0 0.1
2015-Jan-30 16:23N 26°06' W 080°07'1 1.1
2015-Jan-30 15:33N 26°05' W 080°07'1 0.5
2015-Jan-30 14:33N 26°06' W 080°07'0 0.4
2015-Jan-30 13:33N 26°06' W 080°07'0 0.0
2015-Jan-28 20:32N 26°06' W 080°07'1 0.8
2015-Jan-28 19:33N 26°05' W 080°07'3 2.6
2015-Jan-28 18:33N 26°05' W 080°04'3 0.1
2015-Jan-27 20:04N 26°06' W 080°07'1 1.2
2015-Jan-27 19:33N 26°06' W 080°07'1 0.3
2015-Jan-27 17:33N 26°06' W 080°07'3 2.7
2015-Jan-27 16:33N 26°06' W 080°04'1 1.4
2015-Jan-27 15:33N 26°06' W 080°03'2 2.1
2015-Jan-27 14:33N 26°06' W 080°05'1 1.2
2015-Jan-27 13:34N 26°06' W 080°06'1 0.8
2015-Jan-27 12:33N 26°06' W 080°07'0 0.3
2015-Jan-27 11:26N 26°06' W 080°07'1 1.5
2015-Jan-27 10:33N 26°06' W 080°06'1 0.5
2015-Jan-27 09:34N 26°06' W 080°07'0 0.1
2015-Jan-27 07:34N 26°06' W 080°07'0 0.0
2015-Jan-26 22:28N 26°06' W 080°07'1 0.8
2015-Jan-26 21:33N 26°06' W 080°06'1 0.8
2015-Jan-26 20:34N 26°06' W 080°06'2 0.3
2015-Jan-26 14:33N 26°06' W 080°03'3 3.1
2015-Jan-26 13:33N 26°06' W 080°07'0 0.2
2015-Jan-26 11:33N 26°05' W 080°07'5 5.1
2015-Jan-26 10:33N 26°06' W 080°01'5 5.4
2015-Jan-26 09:33N 26°06' W 080°07'5 4.5
2015-Jan-26 08:33N 26°05' W 080°02'4 4.4
2015-Jan-26 07:33N 26°06' W 080°07'0 0.1
2015-Jan-26 04:09N 26°06' W 080°07'1 1.4
2015-Jan-26 03:33N 26°06' W 080°07'0 0.3
2015-Jan-26 02:33N 26°06' W 080°07'1 0.0
2015-Jan-25 11:27N 26°06' W 080°07'5 5.9
2015-Jan-25 10:33N 26°06' W 080°02'3 2.8
2015-Jan-25 09:33N 26°06' W 080°05'2 1.8
2015-Jan-25 08:33N 26°06' W 080°03'4 3.9
2015-Jan-25 07:33N 26°06' W 080°07'1 1.2
2015-Jan-25 06:33N 26°05' W 080°07'1 0.6
2015-Jan-25 05:33N 26°06' W 080°07'0 0.1
2015-Jan-25 04:33N 26°06' W 080°07'2 2.2
2015-Jan-25 03:33N 26°06' W 080°04'3 0.6
2015-Jan-24 23:04N 26°06' W 080°07'2 3.9
2015-Jan-24 22:34N 26°06' W 080°05'2 0.2
2015-Jan-24 12:18N 26°06' W 080°07'1 1.2
2015-Jan-24 11:33N 26°05' W 080°07'0 0.2
2015-Jan-24 10:34N 26°05' W 080°07'0 0.2
2015-Jan-24 09:33N 26°05' W 080°07'1 0.8
2015-Jan-24 08:33N 26°06' W 080°06'3 3.0
2015-Jan-24 07:33N 26°05' W 080°03'3 3.0
2015-Jan-24 06:33N 26°06' W 080°06'1 1.0
2015-Jan-24 05:33N 26°06' W 080°07'1 0.8
2015-Jan-24 04:33N 26°06' W 080°07'0 0.2
2015-Jan-24 02:33N 26°06' W 080°07'0 0.1
2015-Jan-24 01:33N 26°06' W 080°07'1 0.7
2015-Jan-23 23:34N 26°04' W 080°07'2 2.0
2015-Jan-23 22:33N 26°06' W 080°05'2 1.7
2015-Jan-23 21:33N 26°05' W 080°03'4 0.6
2015-Jan-23 15:31N 26°06' W 080°07'1 0.8
2015-Jan-23 14:33N 26°06' W 080°07'  

Dump ship's entire track history